createdAt,value
2022-09-18T00:01:12.199Z,97526.56
2022-09-18T00:03:40.204Z,97526.41
2022-09-18T00:06:09.066Z,97517.59
2022-09-18T00:08:35.786Z,97519.53
2022-09-18T00:11:05.875Z,97526.25
2022-09-18T00:13:33.855Z,97531.00
2022-09-18T00:16:00.902Z,97518.47
2022-09-18T00:18:27.631Z,97526.84
2022-09-18T00:20:54.455Z,97526.41
2022-09-18T00:23:21.237Z,97529.16
2022-09-18T00:25:47.761Z,97527.47
2022-09-18T00:28:14.272Z,97529.78
2022-09-18T00:30:40.789Z,97529.28
2022-09-18T00:33:07.370Z,97521.78
2022-09-18T00:35:34.158Z,97528.53
2022-09-18T00:38:00.712Z,97530.53
2022-09-18T00:40:27.473Z,97534.06
2022-09-18T00:42:54.041Z,97531.59
2022-09-18T00:45:21.373Z,97521.66
2022-09-18T00:47:50.189Z,97516.16
2022-09-18T00:50:23.676Z,97524.41
2022-09-18T00:52:52.019Z,97526.56
2022-09-18T00:55:24.092Z,97516.44
2022-09-18T00:57:56.141Z,97509.28
2022-09-18T01:00:23.396Z,97519.19
2022-09-18T01:02:50.893Z,97517.66
2022-09-18T01:05:56.292Z,97518.00
2022-09-18T01:08:44.037Z,97519.53
2022-09-18T01:11:22.365Z,97530.41
2022-09-18T01:14:14.742Z,97529.63
2022-09-18T01:16:48.500Z,97527.59
2022-09-18T01:19:24.189Z,97517.81
2022-09-18T01:22:19.886Z,97526.25
2022-09-18T01:24:58.703Z,97518.63
2022-09-18T01:27:47.121Z,97516.94
2022-09-18T01:30:13.768Z,97518.19
2022-09-18T01:32:52.667Z,97522.03
2022-09-18T01:35:41.412Z,97523.38
2022-09-18T01:38:19.525Z,97520.00
2022-09-18T01:40:53.366Z,97517.25
2022-09-18T01:43:21.960Z,97518.81
2022-09-18T01:45:52.093Z,97525.84
2022-09-18T01:48:31.846Z,97523.38
2022-09-18T01:51:20.340Z,97524.41
2022-09-18T01:53:52.279Z,97523.38
2022-09-18T01:56:31.378Z,97516.94
2022-09-18T01:59:02.165Z,97524.72
2022-09-18T02:01:44.407Z,97534.81
2022-09-18T02:04:18.402Z,97528.41
2022-09-18T02:06:51.852Z,97536.38
2022-09-18T02:09:18.912Z,97533.00
2022-09-18T02:11:51.090Z,97526.84
2022-09-18T02:14:24.012Z,97528.44
2022-09-18T02:17:15.238Z,97533.00
2022-09-18T02:19:46.224Z,97525.78
2022-09-18T02:22:17.602Z,97520.88
2022-09-18T02:24:49.112Z,97524.41
2022-09-18T02:27:17.980Z,97527.59
2022-09-18T02:29:46.475Z,97529.94
2022-09-18T02:32:14.197Z,97526.25
2022-09-18T02:34:41.321Z,97525.03
2022-09-18T02:37:19.998Z,97524.47
2022-09-18T02:40:08.599Z,97521.09
2022-09-18T02:42:49.508Z,97516.81
2022-09-18T02:45:25.278Z,97505.94
2022-09-18T02:48:16.909Z,97509.63
2022-09-18T02:50:52.425Z,97499.22
2022-09-18T02:53:32.736Z,97503.34
2022-09-18T02:56:09.136Z,97500.47
2022-09-18T02:58:47.147Z,97506.22
2022-09-18T03:01:16.873Z,97513.25
2022-09-18T03:03:43.791Z,97500.09
2022-09-18T03:06:12.403Z,97496.75
2022-09-18T03:08:39.502Z,97500.84
2022-09-18T03:11:06.360Z,97498.59
2022-09-18T03:13:33.139Z,97505.63
2022-09-18T03:15:59.730Z,97497.03
2022-09-18T03:18:26.917Z,97502.53
2022-09-18T03:20:55.945Z,97506.66
2022-09-18T03:23:23.742Z,97503.31
2022-09-18T03:25:53.898Z,97498.34
2022-09-18T03:28:20.496Z,97499.59
2022-09-18T03:30:47.384Z,97496.09
2022-09-18T03:33:15.079Z,97495.03
2022-09-18T03:35:44.028Z,97495.34
2022-09-18T03:38:10.644Z,97485.59
2022-09-18T03:40:47.572Z,97493.78
2022-09-18T03:43:14.918Z,97492.16
2022-09-18T03:45:42.903Z,97496.53
2022-09-18T03:48:09.507Z,97495.97
2022-09-18T03:50:36.558Z,97492.13
2022-09-18T03:53:05.208Z,97502.66
2022-09-18T03:55:47.099Z,97493.94
2022-09-18T03:58:36.494Z,97503.00
2022-09-18T04:01:03.500Z,97490.56
2022-09-18T04:03:39.958Z,97497.59
2022-09-18T04:06:32.774Z,97501.16
2022-09-18T04:09:25.387Z,97504.03
2022-09-18T04:11:53.818Z,97494.13
2022-09-18T04:14:20.537Z,97497.94
2022-09-18T04:16:47.243Z,97500.66
2022-09-18T04:19:13.843Z,97503.41
2022-09-18T04:21:40.695Z,97501.91
2022-09-18T04:24:07.410Z,97506.34
2022-09-18T04:26:35.383Z,97503.53
2022-09-18T04:29:02.383Z,97490.75
2022-09-18T04:31:30.209Z,97499.16
2022-09-18T04:34:00.962Z,97497.78
2022-09-18T04:36:27.837Z,97490.56
2022-09-18T04:38:54.562Z,97487.41
2022-09-18T04:41:21.205Z,97488.16
2022-09-18T04:43:48.201Z,97490.75
2022-09-18T04:46:15.445Z,97497.31
2022-09-18T04:48:48.203Z,97493.34
2022-09-18T04:51:16.202Z,97499.16
2022-09-18T04:53:48.069Z,97497.19
2022-09-18T04:56:15.023Z,97497.78
2022-09-18T04:58:45.929Z,97485.66
2022-09-18T05:01:12.659Z,97473.28
2022-09-18T05:03:41.337Z,97490.09
2022-09-18T05:06:11.066Z,97484.41
2022-09-18T05:08:38.294Z,97489.00
2022-09-18T05:11:05.064Z,97489.28
2022-09-18T05:13:34.899Z,97489.97
2022-09-18T05:16:08.409Z,97495.56
2022-09-18T05:18:35.300Z,97496.06
2022-09-18T05:21:04.061Z,97496.81
2022-09-18T05:23:34.278Z,97491.63
2022-09-18T05:26:02.334Z,97501.25
2022-09-18T05:28:28.895Z,97502.03
2022-09-18T05:31:00.833Z,97502.50
2022-09-18T05:33:36.787Z,97501.25
2022-09-18T05:36:05.627Z,97497.59
2022-09-18T05:38:32.928Z,97498.69
2022-09-18T05:41:01.418Z,97501.59
2022-09-18T05:43:28.925Z,97505.16
2022-09-18T05:45:55.632Z,97490.59
2022-09-18T05:48:31.333Z,97504.22
2022-09-18T05:50:58.202Z,97497.97
2022-09-18T05:53:26.868Z,97504.72
2022-09-18T05:56:06.048Z,97507.19
2022-09-18T05:58:32.633Z,97506.72
2022-09-18T06:01:01.681Z,97508.72
2022-09-18T06:03:42.966Z,97508.09
2022-09-18T06:06:09.549Z,97515.44
2022-09-18T06:08:36.400Z,97503.22
2022-09-18T06:11:03.429Z,97510.38
2022-09-18T06:13:31.806Z,97509.00
2022-09-18T06:15:58.553Z,97509.00
2022-09-18T06:18:47.862Z,97503.13
2022-09-18T06:21:15.136Z,97503.34
2022-09-18T06:23:42.853Z,97498.63
2022-09-18T06:26:24.178Z,97505.06
2022-09-18T06:28:51.590Z,97501.66
2022-09-18T06:31:18.359Z,97501.25
2022-09-18T06:33:59.459Z,97498.25
2022-09-18T06:36:25.998Z,97499.06
2022-09-18T06:39:10.939Z,97491.72
2022-09-18T06:41:37.654Z,97491.88
2022-09-18T06:44:05.945Z,97491.56
2022-09-18T06:46:39.637Z,97493.69
2022-09-18T06:49:28.695Z,97486.66
2022-09-18T06:51:56.252Z,97482.66
2022-09-18T06:54:23.072Z,97478.91
2022-09-18T06:56:49.698Z,97473.88
2022-09-18T06:59:18.245Z,97476.16
2022-09-18T07:01:47.884Z,97491.75
2022-09-18T07:04:19.720Z,97474.81
2022-09-18T07:06:46.857Z,97473.31
2022-09-18T07:09:14.506Z,97468.41
2022-09-18T07:12:07.161Z,97478.81
2022-09-18T07:14:41.634Z,97469.94
2022-09-18T07:17:15.471Z,97472.88
2022-09-18T07:19:45.430Z,97464.78
2022-09-18T07:22:13.775Z,97465.78
2022-09-18T07:24:43.782Z,97461.66
2022-09-18T07:27:10.360Z,97467.63
2022-09-18T07:29:40.162Z,97469.88
2022-09-18T07:32:06.743Z,97471.13
2022-09-18T07:34:33.351Z,97477.56
2022-09-18T07:37:00.026Z,97480.44
2022-09-18T07:39:27.726Z,97472.50
2022-09-18T07:42:13.649Z,97484.00
2022-09-18T07:44:46.883Z,97465.66
2022-09-18T07:47:15.211Z,97464.56
2022-09-18T07:49:42.774Z,97468.88
2022-09-18T07:52:10.254Z,97464.41
2022-09-18T07:54:44.760Z,97465.19
2022-09-18T07:57:32.722Z,97461.94
2022-09-18T08:00:11.969Z,97464.25
2022-09-18T08:02:49.165Z,97467.78
2022-09-18T08:05:35.833Z,97467.31
2022-09-18T08:08:07.388Z,97467.31
2022-09-18T08:10:51.695Z,97475.59
2022-09-18T08:13:36.375Z,97475.31
2022-09-18T08:16:11.281Z,97467.63
2022-09-18T08:18:56.101Z,97469.03
2022-09-18T08:21:32.386Z,97471.47
2022-09-18T08:24:02.520Z,97470.66
2022-09-18T08:26:29.366Z,97478.66
2022-09-18T08:28:56.134Z,97472.22
2022-09-18T08:31:22.725Z,97473.09
2022-09-18T08:33:53.002Z,97472.38
2022-09-18T08:36:20.090Z,97470.53
2022-09-18T08:38:57.259Z,97465.47
2022-09-18T08:41:29.721Z,97476.19
2022-09-18T08:44:14.492Z,97472.06
2022-09-18T08:46:53.676Z,97470.53
2022-09-18T08:49:25.839Z,97464.09
2022-09-18T08:52:03.290Z,97474.34
2022-09-18T08:54:57.919Z,97462.88
2022-09-18T08:57:48.423Z,97462.88
2022-09-18T09:00:41.979Z,97462.84
2022-09-18T09:03:26.451Z,97453.34
2022-09-18T09:06:21.496Z,97462.41
2022-09-18T09:09:13.419Z,97466.06
2022-09-18T09:11:42.260Z,97475.44
2022-09-18T09:14:45.865Z,97479.25
2022-09-18T09:17:13.623Z,97469.28
2022-09-18T09:19:54.433Z,97479.72
2022-09-18T09:22:47.143Z,97478.31
2022-09-18T09:25:13.727Z,97475.41
2022-09-18T09:28:05.699Z,97475.53
2022-09-18T09:31:03.631Z,97476.91
2022-09-18T09:34:07.113Z,97475.53
2022-09-18T09:36:57.341Z,97468.59
2022-09-18T09:39:29.388Z,97467.84
2022-09-18T09:42:03.467Z,97468.91
2022-09-18T09:44:54.062Z,97467.47
2022-09-18T09:47:57.102Z,97473.44
2022-09-18T09:51:17.582Z,97467.09
2022-09-18T09:53:44.632Z,97472.94
2022-09-18T09:56:23.616Z,97478.13
2022-09-18T09:59:08.463Z,97473.03
2022-09-18T10:02:12.149Z,97475.84
2022-09-18T10:04:56.575Z,97480.66
2022-09-18T10:07:30.964Z,97468.09
2022-09-18T10:10:05.305Z,97470.66
2022-09-18T10:12:44.559Z,97479.50
2022-09-18T10:15:18.327Z,97481.50
2022-09-18T10:17:49.266Z,97479.97
2022-09-18T10:20:28.331Z,97488.88
2022-09-18T10:22:59.542Z,97491.16
2022-09-18T10:25:41.998Z,97498.09
2022-09-18T10:28:13.178Z,97507.31
2022-09-18T10:31:10.639Z,97500.00
2022-09-18T10:33:40.668Z,97499.31
2022-09-18T10:36:35.153Z,97494.03
2022-09-18T10:39:18.777Z,97488.88
2022-09-18T10:41:47.088Z,97502.31
2022-09-18T10:44:41.334Z,97489.31
2022-09-18T10:47:22.775Z,97500.97
2022-09-18T10:49:54.979Z,97498.72
2022-09-18T10:52:27.798Z,97484.81
2022-09-18T10:54:58.083Z,97487.00
2022-09-18T10:57:34.417Z,97488.59
2022-09-18T11:00:33.971Z,97474.75
2022-09-18T11:03:10.605Z,97472.63
2022-09-18T11:06:06.732Z,97470.25
2022-09-18T11:08:37.230Z,97476.75
2022-09-18T11:11:07.345Z,97483.19
2022-09-18T11:13:48.909Z,97476.78
2022-09-18T11:16:26.777Z,97500.25
2022-09-18T11:19:05.178Z,97484.31
2022-09-18T11:22:01.577Z,97475.41
2022-09-18T11:24:34.778Z,97473.22
2022-09-18T11:27:23.137Z,97494.97
2022-09-18T11:30:13.591Z,97475.59
2022-09-18T11:32:41.348Z,97479.06
2022-09-18T11:35:15.949Z,97478.59
2022-09-18T11:37:53.237Z,97489.75
2022-09-18T11:40:31.659Z,97489.09
2022-09-18T11:43:02.994Z,97494.09
2022-09-18T11:45:48.943Z,97494.34
2022-09-18T11:48:29.497Z,97483.06
2022-09-18T11:51:01.821Z,97477.00
2022-09-18T11:53:33.521Z,97481.53
2022-09-18T11:56:04.240Z,97491.84
2022-09-18T11:58:47.631Z,97505.78
2022-09-18T12:01:35.442Z,97493.84
2022-09-18T12:04:32.477Z,97486.50
2022-09-18T12:10:38.700Z,97475.50
2022-09-18T12:13:24.495Z,97482.28
2022-09-18T12:16:02.876Z,97480.88
2022-09-18T12:18:42.387Z,97469.28
2022-09-18T12:21:15.027Z,97476.81
2022-09-18T12:23:42.405Z,97468.38
2022-09-18T12:26:26.005Z,97480.09
2022-09-18T12:29:14.134Z,97473.97
2022-09-18T12:32:04.955Z,97469.41
2022-09-18T12:34:49.790Z,97469.28
2022-09-18T12:37:31.601Z,97463.22
2022-09-18T12:40:23.606Z,97449.69
2022-09-18T12:43:18.632Z,97456.59
2022-09-18T12:46:06.518Z,97453.84
2022-09-18T12:49:00.753Z,97455.38
2022-09-18T12:51:41.366Z,97460.13
2022-09-18T12:54:53.586Z,97463.63
2022-09-18T12:57:52.946Z,97485.94
2022-09-18T13:00:22.187Z,97477.78
2022-09-18T13:02:56.151Z,97482.56
2022-09-18T13:05:47.251Z,97490.25
2022-09-18T13:08:36.619Z,97482.41
2022-09-18T13:11:12.352Z,97495.59
2022-09-18T13:13:49.362Z,97487.81
2022-09-18T13:16:26.827Z,97480.81
2022-09-18T13:19:13.921Z,97484.81
2022-09-18T13:21:42.813Z,97472.84
2022-09-18T13:24:16.078Z,97451.56
2022-09-18T13:26:45.221Z,97465.81
2022-09-18T13:29:49.274Z,97476.25
2022-09-18T13:32:25.246Z,97470.38
2022-09-18T13:34:55.548Z,97457.59
2022-09-18T13:37:24.932Z,97464.63
2022-09-18T13:40:10.340Z,97455.66
2022-09-18T13:42:42.729Z,97468.06
2022-09-18T13:45:25.018Z,97471.50
2022-09-18T13:48:06.649Z,97477.63
2022-09-18T13:50:36.019Z,97474.50
2022-09-18T13:53:05.063Z,97482.00
2022-09-18T13:55:38.036Z,97467.59
2022-09-18T13:58:50.098Z,97450.44
2022-09-18T14:01:41.382Z,97458.47
2022-09-18T14:04:39.248Z,97453.44
2022-09-18T14:07:17.903Z,97454.38
2022-09-18T14:09:53.259Z,97457.25
2022-09-18T14:12:20.826Z,97450.69
2022-09-18T14:15:00.980Z,97452.38
2022-09-18T14:17:29.553Z,97450.41
2022-09-18T14:20:04.689Z,97439.41
2022-09-18T14:22:34.419Z,97438.78
2022-09-18T14:25:05.064Z,97419.97
2022-09-18T14:27:57.809Z,97418.13
2022-09-18T14:30:27.472Z,97417.63
2022-09-18T14:33:18.058Z,97424.97
2022-09-18T14:36:07.257Z,97428.53
2022-09-18T14:38:41.161Z,97420.13
2022-09-18T14:41:21.208Z,97421.19
2022-09-18T14:43:53.677Z,97421.94
2022-09-18T14:46:23.209Z,97418.53
2022-09-18T14:48:50.496Z,97425.47
2022-09-18T14:51:29.470Z,97431.16
2022-09-18T14:53:58.879Z,97429.31
2022-09-18T14:56:25.554Z,97427.78
2022-09-18T14:58:52.627Z,97411.22
2022-09-18T15:01:24.322Z,97416.25
2022-09-18T15:03:53.376Z,97408.47
2022-09-18T15:06:28.483Z,97420.25
2022-09-18T15:08:56.899Z,97421.97
2022-09-18T15:11:32.068Z,97420.63
2022-09-18T15:14:31.061Z,97422.09
2022-09-18T15:17:00.174Z,97426.25
2022-09-18T15:19:27.612Z,97419.69
2022-09-18T15:21:54.429Z,97417.41
2022-09-18T15:24:21.513Z,97405.63
2022-09-18T15:26:56.260Z,97404.84
2022-09-18T15:29:25.833Z,97396.75
2022-09-18T15:31:53.664Z,97386.94
2022-09-18T15:34:23.923Z,97388.47
2022-09-18T15:37:03.090Z,97388.84
2022-09-18T15:39:41.457Z,97378.09
2022-09-18T15:42:18.601Z,97380.09
2022-09-18T15:44:51.452Z,97370.16
2022-09-18T15:47:28.282Z,97380.06
2022-09-18T15:49:56.100Z,97366.47
2022-09-18T15:52:42.942Z,97365.22
2022-09-18T15:55:22.186Z,97355.03
2022-09-18T15:57:58.746Z,97361.00
2022-09-18T16:00:31.390Z,97365.72
2022-09-18T16:03:05.186Z,97373.66
2022-09-18T16:05:34.509Z,97365.56
2022-09-18T16:08:05.024Z,97366.94
2022-09-18T16:10:34.529Z,97372.75
2022-09-18T16:13:02.780Z,97364.47
2022-09-18T16:15:29.396Z,97364.00
2022-09-18T16:18:04.109Z,97364.47
2022-09-18T16:20:37.454Z,97357.91
2022-09-18T16:23:31.108Z,97356.38
2022-09-18T16:26:09.439Z,97348.41
2022-09-18T16:28:42.023Z,97343.84
2022-09-18T16:31:10.576Z,97346.16
2022-09-18T16:33:55.596Z,97345.38
2022-09-18T16:36:34.264Z,97329.16
2022-09-18T16:39:03.880Z,97327.31
2022-09-18T16:41:31.403Z,97320.59
2022-09-18T16:43:58.015Z,97310.63
2022-09-18T16:46:30.203Z,97309.28
2022-09-18T16:48:57.313Z,97314.78
2022-09-18T16:51:24.005Z,97312.47
2022-09-18T16:53:50.582Z,97304.06
2022-09-18T16:56:24.348Z,97310.03
2022-09-18T16:58:52.198Z,97305.31
2022-09-18T17:01:23.134Z,97301.59
2022-09-18T17:03:50.674Z,97300.72
2022-09-18T17:06:18.957Z,97294.16
2022-09-18T17:08:46.912Z,97293.50
2022-09-18T17:11:13.707Z,97292.16
2022-09-18T17:13:40.285Z,97294.28
2022-09-18T17:16:07.059Z,97295.22
2022-09-18T17:18:34.825Z,97288.19
2022-09-18T17:21:03.007Z,97289.72
2022-09-18T17:23:30.709Z,97287.44
2022-09-18T17:26:09.188Z,97286.19
2022-09-18T17:28:37.154Z,97295.22
2022-09-18T17:31:17.691Z,97299.47
2022-09-18T17:33:45.274Z,97293.38
2022-09-18T17:36:14.373Z,97290.91
2022-09-18T17:38:41.084Z,97291.53
2022-09-18T17:41:10.592Z,97285.28
2022-09-18T17:43:37.821Z,97285.41
2022-09-18T17:46:07.193Z,97285.72
2022-09-18T17:48:34.061Z,97287.25
2022-09-18T17:51:00.552Z,97298.41
2022-09-18T17:53:28.300Z,97329.59
2022-09-18T17:55:57.464Z,97322.78
2022-09-18T17:58:24.142Z,97343.00
2022-09-18T18:00:50.756Z,97342.09
2022-09-18T18:03:17.401Z,97353.13
2022-09-18T18:05:54.787Z,97352.84
2022-09-18T18:08:21.341Z,97356.72
2022-09-18T18:10:47.893Z,97351.69
2022-09-18T18:13:17.957Z,97361.09
2022-09-18T18:15:45.692Z,97362.31
2022-09-18T18:18:13.191Z,97369.88
2022-09-18T18:20:40.322Z,97369.53
2022-09-18T18:23:06.964Z,97367.88
2022-09-18T18:25:36.771Z,97371.28
2022-09-18T18:28:04.438Z,97367.59
2022-09-18T18:30:31.213Z,97369.97
2022-09-18T18:32:58.123Z,97388.63
2022-09-18T18:35:24.688Z,97393.31
2022-09-18T18:37:51.216Z,97403.41
2022-09-18T18:40:17.933Z,97402.06
2022-09-18T18:42:44.488Z,97405.19
2022-09-18T18:45:11.119Z,97407.22
2022-09-18T18:47:38.717Z,97409.59
2022-09-18T18:50:06.686Z,97404.06
2022-09-18T18:52:33.212Z,97407.16
2022-09-18T18:55:01.702Z,97427.66
2022-09-18T18:57:28.300Z,97424.50
2022-09-18T18:59:57.263Z,97421.34
2022-09-18T19:02:23.845Z,97433.59
2022-09-18T19:04:50.620Z,97429.06
2022-09-18T19:07:17.629Z,97435.69
2022-09-18T19:09:44.148Z,97442.50
2022-09-18T19:12:10.832Z,97445.84
2022-09-18T19:14:38.117Z,97447.97
2022-09-18T19:17:04.984Z,97444.66
2022-09-18T19:19:31.815Z,97449.34
2022-09-18T19:21:59.548Z,97448.25
2022-09-18T19:24:26.818Z,97453.44
2022-09-18T19:26:54.075Z,97455.09
2022-09-18T19:29:21.670Z,97460.00
2022-09-18T19:31:49.357Z,97460.81
2022-09-18T19:34:19.812Z,97462.72
2022-09-18T19:36:50.093Z,97468.84
2022-09-18T19:39:18.709Z,97475.88
2022-09-18T19:41:59.356Z,97475.88
2022-09-18T19:44:45.162Z,97475.78
2022-09-18T19:47:25.205Z,97477.47
2022-09-18T19:49:52.640Z,97475.78
2022-09-18T19:52:22.649Z,97480.47
2022-09-18T19:54:51.001Z,97494.09
2022-09-18T19:57:19.200Z,97496.78
2022-09-18T19:59:47.051Z,97476.94
2022-09-18T20:02:17.318Z,97466.78
2022-09-18T20:04:44.031Z,97463.78
2022-09-18T20:07:10.846Z,97456.78
2022-09-18T20:09:37.402Z,97442.00
2022-09-18T20:12:04.170Z,97462.94
2022-09-18T20:14:30.689Z,97457.09
2022-09-18T20:16:57.521Z,97459.09
2022-09-18T20:19:25.270Z,97460.59
2022-09-18T20:21:52.838Z,97459.47
2022-09-18T20:24:19.922Z,97441.91
2022-09-18T20:26:46.552Z,97439.31
2022-09-18T20:29:16.410Z,97432.25
2022-09-18T20:31:43.558Z,97442.97
2022-09-18T20:34:11.156Z,97438.44
2022-09-18T20:36:38.231Z,97443.72
2022-09-18T20:39:05.363Z,97443.50
2022-09-18T20:41:32.115Z,97452.78
2022-09-18T20:44:05.095Z,97450.28
2022-09-18T20:46:36.821Z,97455.16
2022-09-18T20:49:03.872Z,97452.91
2022-09-18T20:51:34.734Z,97458.81
2022-09-18T20:54:02.889Z,97460.50
2022-09-18T20:56:36.211Z,97461.31
2022-09-18T20:59:07.588Z,97466.41
2022-09-18T21:01:35.513Z,97462.97
2022-09-18T21:04:02.719Z,97465.44
2022-09-18T21:06:33.426Z,97453.44
2022-09-18T21:09:05.708Z,97461.66
2022-09-18T21:11:38.842Z,97464.72
2022-09-18T21:14:07.949Z,97470.47
2022-09-18T21:16:36.806Z,97472.66
2022-09-18T21:19:04.996Z,97469.66
2022-09-18T21:21:36.200Z,97466.06
2022-09-18T21:24:04.007Z,97475.66
2022-09-18T21:26:38.004Z,97470.19
2022-09-18T21:29:07.514Z,97473.09
2022-09-18T21:31:41.960Z,97482.25
2022-09-18T21:34:11.476Z,97478.56
2022-09-18T21:36:38.731Z,97488.75
2022-09-18T21:39:09.755Z,97484.03
2022-09-18T21:41:38.064Z,97478.81
2022-09-18T21:44:11.934Z,97480.69
2022-09-18T21:46:39.082Z,97481.69
2022-09-18T21:49:07.694Z,97482.53
2022-09-18T21:51:35.739Z,97480.63
2022-09-18T21:54:05.511Z,97475.84
2022-09-18T21:56:33.139Z,97475.09
2022-09-18T21:59:00.244Z,97472.06
2022-09-18T22:01:32.142Z,97476.91
2022-09-18T22:04:00.950Z,97476.53
2022-09-18T22:06:30.323Z,97470.69
2022-09-18T22:08:59.014Z,97477.47
2022-09-18T22:11:28.417Z,97473.88
2022-09-18T22:14:01.130Z,97480.06
2022-09-18T22:16:29.543Z,97470.97
2022-09-18T22:18:56.691Z,97478.63
2022-09-18T22:21:32.029Z,97475.00
2022-09-18T22:24:06.339Z,97476.47
2022-09-18T22:26:36.824Z,97475.72
2022-09-18T22:29:06.803Z,97476.66
2022-09-18T22:31:37.527Z,97477.22
2022-09-18T22:34:04.473Z,97477.16
2022-09-18T22:36:31.070Z,97466.44
2022-09-18T22:38:57.795Z,97463.34
2022-09-18T22:41:24.732Z,97463.34
2022-09-18T22:43:55.860Z,97464.91
2022-09-18T22:46:24.339Z,97465.06
2022-09-18T22:48:51.930Z,97461.91
2022-09-18T22:51:21.289Z,97461.09
2022-09-18T22:53:50.843Z,97453.59
2022-09-18T22:56:18.546Z,97463.38
2022-09-18T22:58:45.140Z,97459.84
2022-09-18T23:01:21.245Z,97450.25
2022-09-18T23:03:49.884Z,97448.41
2022-09-18T23:06:17.386Z,97446.50
2022-09-18T23:08:46.231Z,97449.28
2022-09-18T23:11:16.217Z,97449.09
2022-09-18T23:13:48.423Z,97448.78
2022-09-18T23:16:15.501Z,97448.03
2022-09-18T23:18:42.628Z,97445.38
2022-09-18T23:21:12.586Z,97453.31
2022-09-18T23:23:42.700Z,97449.38
2022-09-18T23:26:12.114Z,97441.72
2022-09-18T23:28:42.250Z,97446.91
2022-09-18T23:31:17.292Z,97442.41
2022-09-18T23:33:50.594Z,97447.09
2022-09-18T23:36:24.394Z,97455.06
2022-09-18T23:38:55.964Z,97452.50
2022-09-18T23:41:23.043Z,97448.16
2022-09-18T23:43:53.412Z,97451.22
2022-09-18T23:46:21.264Z,97460.72
2022-09-18T23:48:54.798Z,97456.34
2022-09-18T23:51:26.772Z,97461.22
2022-09-18T23:53:55.808Z,97463.81
2022-09-18T23:56:23.634Z,97460.63
2022-09-18T23:59:01.264Z,97462.16
